METAR πλησιέστερων αεροδρομίων

 

LGIR - Iraklion Airport
Απόσταση από το σταθμό: ΒΔ 62km
Ενημερώθηκε: 14/04/2021 11:20
Λίγα σύννεφα
Λίγα σύννεφα
 Ανεμος από ΑΒΑ
Ανεμος: ΑΒΑ 13 km/h
Θερμοκρασία: 20°C
Σημείο Δρόσου: 14°C
Υγρασία: 69%
Βαρόμετρο: 1017 hPa
Νέφη: Λίγα σύννεφα
Ορατότητα: 10 km
Λεπτομέρειες νεφών: Λίγα σύννεφα 762 m
2021/04/14 08:20 LGIR 140820Z 07007KT 9999 FEW025 20/14 Q1017 NOSIG
LGSA - Souda/Chania Airport
Απόσταση από το σταθμό: ΔΒΔ 154km
Ενημερώθηκε: 14/04/2021 11:20
Αίθριος
Αίθριος
 Ανεμος από ΒΒΑ
Ανεμος: ΒΒΑ 7 km/h
Θερμοκρασία: 20°C
Σημείο Δρόσου: 12°C
Υγρασία: 60%
Βαρόμετρο: 1016 hPa
Περίληψη: Αίθριος
Ορατότητα: μεγαλύτερη από 10 km
2021/04/14 08:20 LGSA 140820Z 03004KT CAVOK 20/12 Q1016